createdAt,value
2022-07-29T00:00:23.422Z,938.28
2022-07-29T00:01:24.322Z,938.25
2022-07-29T00:02:25.035Z,938.25
2022-07-29T00:03:25.201Z,938.22
2022-07-29T00:04:25.566Z,938.28
2022-07-29T00:05:26.326Z,938.24
2022-07-29T00:06:26.678Z,938.19
2022-07-29T00:09:27.261Z,938.24
2022-07-29T00:10:27.930Z,938.24
2022-07-29T00:11:28.856Z,938.18
2022-07-29T00:12:29.490Z,938.18
2022-07-29T00:13:31.934Z,938.17
2022-07-29T00:14:30.884Z,938.18
2022-07-29T00:15:31.149Z,938.21
2022-07-29T00:16:32.171Z,938.25
2022-07-29T00:17:32.878Z,938.26
2022-07-29T00:18:33.792Z,938.25
2022-07-29T00:19:34.719Z,938.2
2022-07-29T00:20:35.197Z,938.19
2022-07-29T00:21:35.464Z,938.19
2022-07-29T00:22:35.669Z,938.18
2022-07-29T00:23:36.975Z,938.17
2022-07-29T00:24:37.510Z,938.19
2022-07-29T00:25:37.735Z,938.14
2022-07-29T00:26:38.662Z,938.11
2022-07-29T00:28:39.626Z,938.04
2022-07-29T00:29:39.822Z,938.06
2022-07-29T00:31:40.932Z,938.01
2022-07-29T00:32:41.084Z,938.02
2022-07-29T00:35:42.591Z,937.94
2022-07-29T00:36:43.206Z,937.93
2022-07-29T00:37:44.279Z,937.91
2022-07-29T00:38:44.737Z,937.9
2022-07-29T00:39:45.664Z,937.91
2022-07-29T00:40:46.161Z,937.85
2022-07-29T00:41:47.085Z,937.84
2022-07-29T00:42:47.352Z,937.81
2022-07-29T00:43:47.520Z,937.81
2022-07-29T00:44:47.734Z,937.79
2022-07-29T00:45:48.354Z,937.85
2022-07-29T00:46:49.189Z,937.82
2022-07-29T00:47:49.632Z,937.85
2022-07-29T00:48:50.247Z,937.82
2022-07-29T00:49:50.583Z,937.81
2022-07-29T00:50:51.094Z,937.83
2022-07-29T00:51:52.048Z,937.87
2022-07-29T00:52:52.983Z,937.86
2022-07-29T00:53:53.226Z,937.8
2022-07-29T00:54:53.476Z,937.82
2022-07-29T00:55:54.130Z,937.79
2022-07-29T00:56:54.381Z,937.83
2022-07-29T00:57:54.521Z,937.77
2022-07-29T00:58:55.459Z,937.73
2022-07-29T00:59:55.691Z,937.72
2022-07-29T01:00:55.954Z,937.65
2022-07-29T01:01:56.989Z,937.63
2022-07-29T01:02:57.646Z,937.64
2022-07-29T01:03:58.432Z,937.63
2022-07-29T01:04:58.810Z,937.63
2022-07-29T01:05:59.456Z,937.61
2022-07-29T01:07:00.117Z,937.59
2022-07-29T01:08:00.415Z,937.57
2022-07-29T01:09:00.631Z,937.59
2022-07-29T01:10:01.074Z,937.6
2022-07-29T01:15:04.662Z,937.59
2022-07-29T01:16:05.339Z,937.63
2022-07-29T01:17:05.391Z,937.61
2022-07-29T01:18:06.418Z,937.62
2022-07-29T01:19:06.686Z,937.6
2022-07-29T01:20:07.608Z,937.59
2022-07-29T01:22:08.543Z,937.53
2022-07-29T01:23:08.771Z,937.58
2022-07-29T01:25:10.774Z,937.55
2022-07-29T01:26:10.937Z,937.53
2022-07-29T01:27:11.122Z,937.48
2022-07-29T01:28:11.790Z,937.43
2022-07-29T01:29:12.749Z,937.46
2022-07-29T01:30:13.843Z,937.47
2022-07-29T01:31:13.621Z,937.45
2022-07-29T01:32:18.173Z,937.44
2022-07-29T01:33:15.205Z,937.43
2022-07-29T01:34:15.731Z,937.46
2022-07-29T01:35:16.158Z,937.44
2022-07-29T01:36:16.807Z,937.41
2022-07-29T01:37:17.013Z,937.37
2022-07-29T01:38:17.310Z,937.35
2022-07-29T01:39:17.578Z,937.39
2022-07-29T01:40:18.432Z,937.35
2022-07-29T01:41:18.943Z,937.32
2022-07-29T01:42:19.456Z,937.38
2022-07-29T01:43:19.968Z,937.36
2022-07-29T01:44:20.892Z,937.34
2022-07-29T01:45:21.825Z,937.37
2022-07-29T01:46:22.091Z,937.35
2022-07-29T01:47:22.353Z,937.29
2022-07-29T01:48:22.645Z,937.3
2022-07-29T01:49:23.734Z,937.27
2022-07-29T01:50:23.755Z,937.27
2022-07-29T01:51:24.266Z,937.24
2022-07-29T01:52:24.923Z,937.24
2022-07-29T01:53:25.541Z,937.18
2022-07-29T01:54:25.986Z,937.14
2022-07-29T01:55:26.204Z,937.13
2022-07-29T01:56:26.862Z,937.1
2022-07-29T01:57:27.507Z,937.06
2022-07-29T01:58:29.151Z,937.05
2022-07-29T01:59:29.389Z,936.99
2022-07-29T02:00:29.541Z,936.97
2022-07-29T02:01:29.691Z,936.97
2022-07-29T02:02:30.563Z,936.95
2022-07-29T02:03:30.777Z,936.93
2022-07-29T02:04:31.709Z,936.92
2022-07-29T02:05:31.878Z,936.93
2022-07-29T02:06:32.444Z,936.89
2022-07-29T02:07:33.403Z,936.93
2022-07-29T02:08:33.582Z,936.86
2022-07-29T02:09:34.098Z,936.85
2022-07-29T02:10:35.036Z,936.84
2022-07-29T02:11:35.654Z,936.82
2022-07-29T02:12:35.886Z,936.81
2022-07-29T02:13:36.040Z,936.82
2022-07-29T02:14:36.704Z,936.82
2022-07-29T02:15:37.137Z,936.77
2022-07-29T02:16:37.637Z,936.77
2022-07-29T02:17:38.911Z,936.71
2022-07-29T02:18:38.971Z,936.71
2022-07-29T02:19:39.602Z,936.66
2022-07-29T02:20:40.225Z,936.63
2022-07-29T02:21:40.455Z,936.64
2022-07-29T02:22:40.676Z,936.63
2022-07-29T02:23:45.330Z,936.62
2022-07-29T02:24:41.797Z,936.66
2022-07-29T02:25:42.527Z,936.65
2022-07-29T02:26:42.769Z,936.63
2022-07-29T02:27:42.995Z,936.62
2022-07-29T02:28:43.443Z,936.63
2022-07-29T02:29:43.958Z,936.64
2022-07-29T02:30:44.545Z,936.67
2022-07-29T02:31:45.213Z,936.59
2022-07-29T02:32:46.612Z,936.61
2022-07-29T02:33:46.585Z,936.58
2022-07-29T02:34:46.803Z,936.59
2022-07-29T02:35:47.018Z,936.64
2022-07-29T02:36:48.949Z,936.6
2022-07-29T02:37:47.777Z,936.62
2022-07-29T02:38:48.376Z,936.57
2022-07-29T02:39:48.614Z,936.57
2022-07-29T02:40:49.529Z,936.54
2022-07-29T02:41:50.048Z,936.56
2022-07-29T02:42:50.275Z,936.55
2022-07-29T02:43:50.516Z,936.53
2022-07-29T02:44:50.804Z,936.54
2022-07-29T02:45:51.806Z,936.5
2022-07-29T02:46:52.277Z,936.52
2022-07-29T02:47:52.736Z,936.51
2022-07-29T02:48:53.023Z,936.51
2022-07-29T02:49:53.146Z,936.51
2022-07-29T02:50:54.176Z,936.53
2022-07-29T02:51:54.720Z,936.49
2022-07-29T02:52:56.130Z,936.51
2022-07-29T02:53:56.146Z,936.5
2022-07-29T02:54:56.970Z,936.48
2022-07-29T02:55:57.466Z,936.46
2022-07-29T02:56:58.359Z,936.45
2022-07-29T02:57:58.577Z,936.46
2022-07-29T02:58:58.865Z,936.47
2022-07-29T02:59:59.792Z,936.52
2022-07-29T03:01:00.729Z,936.53
2022-07-29T03:02:01.758Z,936.51
2022-07-29T03:03:02.421Z,936.5
2022-07-29T03:04:03.343Z,936.44
2022-07-29T03:05:03.602Z,936.49
2022-07-29T03:06:04.524Z,936.47
2022-07-29T03:07:04.936Z,936.48
2022-07-29T03:08:05.574Z,936.48
2022-07-29T03:09:10.591Z,936.47
2022-07-29T03:10:07.166Z,936.43
2022-07-29T03:11:07.626Z,936.45
2022-07-29T03:12:07.766Z,936.45
2022-07-29T03:13:07.983Z,936.4
2022-07-29T03:14:08.613Z,936.42
2022-07-29T03:15:08.799Z,936.4
2022-07-29T03:16:08.954Z,936.43
2022-07-29T03:17:09.051Z,936.43
2022-07-29T03:18:09.969Z,936.46
2022-07-29T03:19:10.557Z,936.43
2022-07-29T03:20:10.760Z,936.42
2022-07-29T03:21:10.965Z,936.39
2022-07-29T03:22:11.885Z,936.43
2022-07-29T03:23:12.777Z,936.4
2022-07-29T03:24:13.288Z,936.42
2022-07-29T03:25:14.142Z,936.44
2022-07-29T03:26:14.472Z,936.41
2022-07-29T03:27:14.694Z,936.45
2022-07-29T03:28:14.926Z,936.43
2022-07-29T03:29:14.347Z,936.42
2022-07-29T03:30:18.137Z,936.46
2022-07-29T03:31:15.768Z,936.41
2022-07-29T03:32:15.959Z,936.42
2022-07-29T03:33:16.535Z,936.44
2022-07-29T03:34:17.866Z,936.39
2022-07-29T03:35:17.638Z,936.43
2022-07-29T03:36:17.961Z,936.41
2022-07-29T03:37:18.459Z,936.43
2022-07-29T03:38:18.661Z,936.43
2022-07-29T03:39:19.314Z,936.43
2022-07-29T03:40:19.825Z,936.44
2022-07-29T03:41:22.489Z,936.4
2022-07-29T03:42:20.861Z,936.42
2022-07-29T03:43:21.925Z,936.4
2022-07-29T03:44:22.190Z,936.42
2022-07-29T03:45:22.391Z,936.37
2022-07-29T03:46:22.916Z,936.4
2022-07-29T03:47:27.000Z,936.42
2022-07-29T03:48:24.383Z,936.43
2022-07-29T03:49:24.929Z,936.4
2022-07-29T03:50:25.183Z,936.43
2022-07-29T03:51:31.597Z,936.44
2022-07-29T03:52:26.416Z,936.45
2022-07-29T03:53:27.043Z,936.45
2022-07-29T03:54:27.664Z,936.42
2022-07-29T03:55:27.876Z,936.41
2022-07-29T03:56:28.383Z,936.44
2022-07-29T03:57:28.601Z,936.46
2022-07-29T03:58:28.812Z,936.48
2022-07-29T03:59:29.387Z,936.47
2022-07-29T04:00:29.621Z,936.48
2022-07-29T04:01:30.145Z,936.48
2022-07-29T04:02:30.999Z,936.49
2022-07-29T04:03:31.677Z,936.5
2022-07-29T04:04:31.895Z,936.46
2022-07-29T04:05:32.112Z,936.5
2022-07-29T04:06:33.151Z,936.47
2022-07-29T04:07:33.778Z,936.45
2022-07-29T04:08:34.431Z,936.51
2022-07-29T04:09:35.454Z,936.52
2022-07-29T04:10:36.374Z,936.51
2022-07-29T04:11:57.202Z,936.57
2022-07-29T04:12:37.886Z,936.56
2022-07-29T04:13:38.378Z,936.56
2022-07-29T04:14:38.875Z,936.51
2022-07-29T04:15:39.131Z,936.54
2022-07-29T04:16:39.685Z,936.55
2022-07-29T04:17:40.185Z,936.54
2022-07-29T04:18:40.761Z,936.56
2022-07-29T04:19:41.051Z,936.62
2022-07-29T04:20:41.983Z,936.6
2022-07-29T04:21:42.910Z,936.59
2022-07-29T04:22:43.837Z,936.6
2022-07-29T04:23:47.623Z,936.63
2022-07-29T04:24:45.464Z,936.62
2022-07-29T04:25:46.418Z,936.62
2022-07-29T04:26:46.619Z,936.63
2022-07-29T04:27:46.818Z,936.66
2022-07-29T04:28:47.736Z,936.66
2022-07-29T04:29:56.465Z,936.69
2022-07-29T04:30:49.448Z,936.72
2022-07-29T04:31:50.456Z,936.72
2022-07-29T04:32:51.368Z,936.71
2022-07-29T04:33:52.274Z,936.74
2022-07-29T04:34:53.176Z,936.74
2022-07-29T04:35:54.978Z,936.75
2022-07-29T04:36:53.743Z,936.77
2022-07-29T04:37:54.793Z,936.75
2022-07-29T04:38:55.517Z,936.75
2022-07-29T04:39:56.230Z,936.73
2022-07-29T04:40:56.872Z,936.78
2022-07-29T04:41:57.578Z,936.79
2022-07-29T04:42:58.062Z,936.73
2022-07-29T04:43:58.235Z,936.75
2022-07-29T04:44:59.299Z,936.82
2022-07-29T04:46:00.383Z,936.77
2022-07-29T04:47:01.184Z,936.79
2022-07-29T04:48:01.696Z,936.8
2022-07-29T04:49:02.743Z,936.8
2022-07-29T04:50:03.694Z,936.8
2022-07-29T04:51:04.621Z,936.81
2022-07-29T04:52:04.851Z,936.83
2022-07-29T04:53:05.069Z,936.83
2022-07-29T04:54:05.291Z,936.8
2022-07-29T04:55:05.975Z,936.85
2022-07-29T04:56:06.201Z,936.8
2022-07-29T04:57:06.422Z,936.85
2022-07-29T04:58:07.348Z,936.82
2022-07-29T04:59:07.565Z,936.78
2022-07-29T05:00:08.567Z,936.78
2022-07-29T05:01:08.905Z,936.78
2022-07-29T05:02:09.508Z,936.8
2022-07-29T05:03:10.028Z,936.79
2022-07-29T05:04:10.484Z,936.75
2022-07-29T05:05:11.552Z,936.75
2022-07-29T05:06:11.753Z,936.72
2022-07-29T05:07:12.091Z,936.73
2022-07-29T05:08:12.288Z,936.71
2022-07-29T05:09:12.919Z,936.7
2022-07-29T05:10:13.684Z,936.7
2022-07-29T05:11:18.165Z,936.72
2022-07-29T05:12:14.701Z,936.72
2022-07-29T05:13:15.607Z,936.76
2022-07-29T05:14:16.268Z,936.78
2022-07-29T05:15:17.126Z,936.77
2022-07-29T05:16:17.537Z,936.71
2022-07-29T05:17:18.268Z,936.71
2022-07-29T05:18:19.176Z,936.69
2022-07-29T05:19:20.214Z,936.75
2022-07-29T05:20:20.900Z,936.73
2022-07-29T05:21:21.403Z,936.73
2022-07-29T05:22:22.052Z,936.75
2022-07-29T05:23:22.612Z,936.78
2022-07-29T05:24:23.518Z,936.76
2022-07-29T05:25:23.722Z,936.76
2022-07-29T05:26:24.640Z,936.81
2022-07-29T05:27:25.561Z,936.81
2022-07-29T05:28:26.486Z,936.83
2022-07-29T05:29:43.415Z,936.82
2022-07-29T05:30:33.807Z,936.89
2022-07-29T05:31:34.536Z,936.86
2022-07-29T05:32:34.740Z,936.91
2022-07-29T05:33:36.996Z,936.86
2022-07-29T05:34:36.073Z,936.89
2022-07-29T05:35:36.392Z,936.93
2022-07-29T05:36:36.843Z,936.91
2022-07-29T05:37:37.064Z,936.93
2022-07-29T05:38:37.411Z,936.94
2022-07-29T05:39:47.505Z,936.97
2022-07-29T05:40:41.208Z,936.92
2022-07-29T05:41:42.135Z,936.96
2022-07-29T05:42:42.556Z,936.99
2022-07-29T05:43:43.055Z,937.03
2022-07-29T05:44:43.264Z,937.01
2022-07-29T05:45:49.388Z,937.02
2022-07-29T05:46:44.373Z,937.01
2022-07-29T05:47:44.837Z,937
2022-07-29T05:48:45.343Z,936.96
2022-07-29T05:49:46.342Z,936.98
2022-07-29T05:50:47.082Z,937
2022-07-29T05:51:47.990Z,937.01
2022-07-29T05:52:48.899Z,937.04
2022-07-29T05:53:49.059Z,937.01
2022-07-29T05:54:50.003Z,937.02
2022-07-29T05:55:50.289Z,937
2022-07-29T05:56:50.487Z,936.96
2022-07-29T05:57:50.692Z,936.99
2022-07-29T05:58:51.786Z,936.99
2022-07-29T05:59:51.920Z,937.02
2022-07-29T06:00:52.226Z,937.08
2022-07-29T06:01:53.225Z,937.04
2022-07-29T06:02:54.088Z,937.04
2022-07-29T06:03:54.629Z,937.03
2022-07-29T06:04:55.280Z,937.07
2022-07-29T06:05:56.051Z,937.05
2022-07-29T06:06:56.683Z,937.06
2022-07-29T06:07:57.313Z,937.09
2022-07-29T06:08:58.341Z,937.09
2022-07-29T06:09:58.575Z,937.11
2022-07-29T06:10:59.566Z,937.17
2022-07-29T06:11:59.777Z,937.13
2022-07-29T06:13:00.272Z,937.14
2022-07-29T06:14:00.915Z,937.15
2022-07-29T06:15:01.611Z,937.17
2022-07-29T06:16:02.332Z,937.16
2022-07-29T06:19:06.331Z,937.13
2022-07-29T06:20:07.582Z,937.17
2022-07-29T06:21:07.450Z,937.2
2022-07-29T06:22:07.649Z,937.21
2022-07-29T06:23:07.875Z,937.26
2022-07-29T06:24:08.797Z,937.2
2022-07-29T06:25:09.071Z,937.2
2022-07-29T06:26:10.001Z,937.19
2022-07-29T06:27:10.453Z,937.25
2022-07-29T06:28:10.674Z,937.21
2022-07-29T06:29:10.877Z,937.2
2022-07-29T06:30:10.999Z,937.2
2022-07-29T06:31:11.513Z,937.18
2022-07-29T06:32:12.341Z,937.22
2022-07-29T06:33:12.638Z,937.23
2022-07-29T06:34:13.107Z,937.23
2022-07-29T06:35:38.052Z,937.2
2022-07-29T06:36:13.950Z,937.22
2022-07-29T06:37:15.465Z,937.2
2022-07-29T06:38:25.169Z,937.24
2022-07-29T06:39:15.384Z,937.27
2022-07-29T06:40:15.708Z,937.31
2022-07-29T06:41:16.213Z,937.26
2022-07-29T06:43:16.885Z,937.3
2022-07-29T06:44:18.189Z,937.31
2022-07-29T06:45:18.720Z,937.31
2022-07-29T06:46:18.895Z,937.36
2022-07-29T06:47:19.563Z,937.36
2022-07-29T06:48:20.060Z,937.35
2022-07-29T06:49:20.734Z,937.4
2022-07-29T06:50:21.565Z,937.44
2022-07-29T06:51:23.003Z,937.44
2022-07-29T06:52:22.711Z,937.52
2022-07-29T06:53:23.658Z,937.51
2022-07-29T06:54:24.630Z,937.51
2022-07-29T06:55:25.585Z,937.52
2022-07-29T06:56:25.859Z,937.54
2022-07-29T06:57:25.977Z,937.54
2022-07-29T06:58:26.214Z,937.55
2022-07-29T06:59:33.527Z,937.54
2022-07-29T07:00:27.712Z,937.58
2022-07-29T07:01:28.397Z,937.57
2022-07-29T07:02:29.153Z,937.63
2022-07-29T07:03:30.062Z,937.6
2022-07-29T07:04:30.998Z,937.57
2022-07-29T07:05:31.949Z,937.64
2022-07-29T07:06:32.209Z,937.66
2022-07-29T07:07:32.422Z,937.67
2022-07-29T07:08:32.625Z,937.72
2022-07-29T07:09:40.221Z,937.72
2022-07-29T07:10:34.112Z,937.73
2022-07-29T07:11:34.343Z,937.75
2022-07-29T07:12:34.676Z,937.67
2022-07-29T07:13:35.186Z,937.67
2022-07-29T07:14:35.453Z,937.64
2022-07-29T07:15:38.911Z,937.64
2022-07-29T07:16:36.863Z,937.71
2022-07-29T07:17:37.388Z,937.64
2022-07-29T07:18:37.597Z,937.66
2022-07-29T07:19:38.345Z,937.66
2022-07-29T07:20:38.713Z,937.65
2022-07-29T07:21:38.931Z,937.66
2022-07-29T07:22:39.331Z,937.69
2022-07-29T07:23:40.262Z,937.69
2022-07-29T07:24:41.190Z,937.67
2022-07-29T07:25:41.853Z,937.72
2022-07-29T07:26:42.781Z,937.7
2022-07-29T07:27:42.997Z,937.66
2022-07-29T07:28:43.934Z,937.7
2022-07-29T07:29:44.467Z,937.64
2022-07-29T07:30:44.859Z,937.66
2022-07-29T07:31:45.448Z,937.71
2022-07-29T07:32:46.213Z,937.66
2022-07-29T07:33:47.136Z,937.67
2022-07-29T07:34:47.773Z,937.66
2022-07-29T07:35:48.279Z,937.68
2022-07-29T07:36:49.186Z,937.68
2022-07-29T07:37:50.109Z,937.7
2022-07-29T07:38:50.323Z,937.67
2022-07-29T07:39:51.255Z,937.69
2022-07-29T07:40:51.611Z,937.74
2022-07-29T07:41:52.513Z,937.75
2022-07-29T07:42:53.143Z,937.74
2022-07-29T07:43:53.349Z,937.71
2022-07-29T07:45:12.412Z,937.73
2022-07-29T07:45:54.064Z,937.73
2022-07-29T07:46:54.818Z,937.71
2022-07-29T07:47:55.089Z,937.72
2022-07-29T07:48:56.206Z,937.72
2022-07-29T07:49:56.376Z,937.73
2022-07-29T07:50:57.385Z,937.73
2022-07-29T07:51:57.896Z,937.73
2022-07-29T07:52:59.061Z,937.75
2022-07-29T07:53:59.371Z,937.76
2022-07-29T07:54:59.591Z,937.78
2022-07-29T07:56:15.698Z,937.73
2022-07-29T07:57:00.549Z,937.73
2022-07-29T07:58:00.780Z,937.72
2022-07-29T07:59:01.003Z,937.67
2022-07-29T08:00:01.974Z,937.73
2022-07-29T08:01:02.418Z,937.72
2022-07-29T08:02:03.263Z,937.72
2022-07-29T08:03:04.174Z,937.76
2022-07-29T08:04:05.237Z,937.73
2022-07-29T08:05:05.353Z,937.77
2022-07-29T08:06:05.932Z,937.78
2022-07-29T08:07:06.851Z,937.83
2022-07-29T08:08:07.063Z,937.77
2022-07-29T08:09:27.047Z,937.79
2022-07-29T08:10:07.434Z,937.82
2022-07-29T08:11:09.641Z,937.85
2022-07-29T08:12:08.558Z,937.83
2022-07-29T08:13:08.762Z,937.86
2022-07-29T08:14:08.967Z,937.87
2022-07-29T08:15:09.683Z,937.87
2022-07-29T08:16:10.038Z,937.89
2022-07-29T08:17:11.067Z,937.9
2022-07-29T08:18:11.596Z,937.9
2022-07-29T08:19:11.834Z,937.91
2022-07-29T08:20:12.511Z,937.91
2022-07-29T08:21:14.996Z,937.91
2022-07-29T08:22:13.623Z,937.91
2022-07-29T08:23:13.839Z,937.91
2022-07-29T08:24:14.116Z,937.87
2022-07-29T08:25:15.034Z,937.89
2022-07-29T08:26:15.145Z,937.92
2022-07-29T08:27:41.051Z,937.92
2022-07-29T08:28:16.453Z,937.97
2022-07-29T08:29:19.992Z,937.98
2022-07-29T08:30:17.689Z,937.97
2022-07-29T08:31:18.016Z,937.96
2022-07-29T08:32:31.091Z,938.01
2022-07-29T08:33:19.178Z,938.02
2022-07-29T08:34:19.398Z,938.03
2022-07-29T08:35:20.239Z,938.05
2022-07-29T08:36:20.398Z,938
2022-07-29T08:37:20.608Z,938
2022-07-29T08:38:20.838Z,938.02
2022-07-29T08:39:21.066Z,937.99
2022-07-29T08:40:21.418Z,938
2022-07-29T08:41:21.911Z,938.02
2022-07-29T08:42:22.582Z,938.05
2022-07-29T08:43:23.236Z,938.02
2022-07-29T08:44:26.561Z,938.05
2022-07-29T08:45:23.986Z,938.05
2022-07-29T08:46:24.142Z,938.06
2022-07-29T08:47:24.139Z,938.06
2022-07-29T08:48:24.712Z,938.05
2022-07-29T08:49:25.081Z,938.05
2022-07-29T08:50:25.505Z,938.07
2022-07-29T08:51:26.568Z,938.07
2022-07-29T08:52:27.192Z,938.04
2022-07-29T08:53:27.966Z,938.04
2022-07-29T08:54:28.678Z,938.05
2022-07-29T08:55:28.911Z,938.04
2022-07-29T08:56:29.142Z,938.02
2022-07-29T08:57:30.101Z,938.01
2022-07-29T08:58:30.828Z,938.01
2022-07-29T08:59:31.810Z,938.02
2022-07-29T09:00:32.854Z,938.06
2022-07-29T09:01:42.617Z,938.07
2022-07-29T09:02:36.296Z,938.02
2022-07-29T09:03:37.174Z,938.03
2022-07-29T09:04:37.164Z,938.05
2022-07-29T09:05:40.669Z,938.06
2022-07-29T09:06:38.843Z,938.08
2022-07-29T09:07:39.475Z,938.09
2022-07-29T09:08:39.684Z,938.07
2022-07-29T09:09:39.890Z,938.09
2022-07-29T09:10:40.834Z,938.09
2022-07-29T09:11:41.550Z,938.09
2022-07-29T09:12:42.094Z,938.09
2022-07-29T09:13:43.022Z,938.04
2022-07-29T09:14:43.663Z,938.08
2022-07-29T09:15:43.873Z,938.06
2022-07-29T09:17:44.693Z,938.06
2022-07-29T09:18:45.344Z,938.06
2022-07-29T09:19:45.975Z,938.04
2022-07-29T09:20:46.830Z,938.03
2022-07-29T09:21:46.833Z,938.04
2022-07-29T09:22:47.529Z,938.01
2022-07-29T09:23:47.740Z,938
2022-07-29T09:24:48.422Z,937.99
2022-07-29T09:25:48.644Z,937.99
2022-07-29T09:26:48.849Z,937.99
2022-07-29T09:27:49.451Z,938
2022-07-29T09:28:49.680Z,937.97
2022-07-29T09:29:50.315Z,938
2022-07-29T09:30:51.268Z,937.99
2022-07-29T09:31:51.691Z,938.03
2022-07-29T09:32:52.614Z,937.98
2022-07-29T09:33:52.980Z,938.01
2022-07-29T09:34:58.236Z,938.02
2022-07-29T09:35:56.658Z,938.04
2022-07-29T09:36:55.334Z,938.04
2022-07-29T09:37:55.414Z,938.06
2022-07-29T09:38:56.116Z,938.06
2022-07-29T09:39:56.798Z,938.07
2022-07-29T09:40:56.945Z,938.08
2022-07-29T09:41:57.068Z,938.08
2022-07-29T09:42:57.258Z,938.1
2022-07-29T09:43:58.199Z,938.07
2022-07-29T09:44:58.573Z,938.08
2022-07-29T09:45:59.496Z,938.05
2022-07-29T09:47:00.479Z,938.06
2022-07-29T09:48:01.110Z,938.07
2022-07-29T09:49:01.750Z,938.11
2022-07-29T09:50:02.046Z,938.12
2022-07-29T09:51:02.359Z,938.16
2022-07-29T09:52:09.261Z,938.19
2022-07-29T09:53:09.472Z,938.15
2022-07-29T09:54:10.378Z,938.13
2022-07-29T09:55:13.529Z,938.14
2022-07-29T09:56:11.570Z,938.1
2022-07-29T09:57:12.493Z,938.06
2022-07-29T09:58:13.371Z,938.05
2022-07-29T09:59:13.581Z,938.08
2022-07-29T10:00:14.522Z,938.09
2022-07-29T10:01:15.207Z,938.03
2022-07-29T10:02:20.358Z,938.05
2022-07-29T10:03:16.955Z,938.03
2022-07-29T10:04:17.794Z,938.05
2022-07-29T10:05:18.454Z,938.06
2022-07-29T10:06:19.544Z,938.09
2022-07-29T10:07:19.768Z,938.1
2022-07-29T10:08:20.409Z,938.03
2022-07-29T10:09:22.258Z,938.07
2022-07-29T10:10:21.562Z,938.11
2022-07-29T10:11:22.620Z,938.05
2022-07-29T10:12:32.549Z,938.03
2022-07-29T10:13:32.906Z,938.07
2022-07-29T10:14:33.827Z,938.08
2022-07-29T10:15:34.781Z,938.05
2022-07-29T10:16:35.653Z,938.04
2022-07-29T10:17:36.403Z,938.01
2022-07-29T10:18:37.353Z,938.02
2022-07-29T10:19:38.275Z,938.03
2022-07-29T10:20:38.506Z,937.99
2022-07-29T10:21:38.919Z,937.98
2022-07-29T10:22:54.698Z,938
2022-07-29T10:23:55.248Z,937.99
2022-07-29T10:24:56.320Z,937.94
2022-07-29T10:25:57.251Z,937.97
2022-07-29T10:26:57.457Z,937.95
2022-07-29T10:27:57.807Z,937.98
2022-07-29T10:28:58.500Z,938.02
2022-07-29T10:29:59.379Z,938.04
2022-07-29T10:31:00.142Z,938.03
2022-07-29T10:32:00.277Z,937.96
2022-07-29T10:33:00.923Z,938.02
2022-07-29T10:34:01.854Z,938
2022-07-29T10:35:02.856Z,938.03
2022-07-29T10:36:03.916Z,938.07
2022-07-29T10:37:04.703Z,937.99
2022-07-29T10:38:05.395Z,937.98
2022-07-29T10:39:05.913Z,938
2022-07-29T10:40:06.049Z,938
2022-07-29T10:41:06.857Z,937.98
2022-07-29T10:42:06.846Z,937.97
2022-07-29T10:43:16.927Z,938.02
2022-07-29T10:44:19.041Z,937.99
2022-07-29T10:45:18.078Z,938.01
2022-07-29T10:46:18.315Z,938.04
2022-07-29T10:47:19.379Z,938.05
2022-07-29T10:48:20.399Z,938.05
2022-07-29T10:49:24.665Z,938.06
2022-07-29T10:50:21.836Z,938.07
2022-07-29T10:51:22.707Z,938.05
2022-07-29T10:52:26.520Z,938.06
2022-07-29T10:53:23.434Z,938.04
2022-07-29T10:54:24.313Z,938.07
2022-07-29T10:55:25.331Z,938.08
2022-07-29T10:56:26.418Z,938.09
2022-07-29T10:57:52.958Z,938.12
2022-07-29T10:58:28.202Z,938.11
2022-07-29T10:59:32.291Z,938.11
2022-07-29T11:00:29.179Z,938.11
2022-07-29T11:01:36.937Z,938.1
2022-07-29T11:02:44.627Z,938.07
2022-07-29T11:03:57.147Z,938.08
2022-07-29T11:04:54.572Z,938.09
2022-07-29T11:05:54.717Z,938.04
2022-07-29T11:06:54.889Z,937.95
2022-07-29T11:07:55.575Z,938
2022-07-29T11:08:56.560Z,938.02
2022-07-29T11:09:56.909Z,938.04
2022-07-29T11:10:57.692Z,937.98
2022-07-29T11:11:58.495Z,938.01
2022-07-29T11:12:58.581Z,937.95
2022-07-29T11:13:59.567Z,937.85
2022-07-29T11:15:00.376Z,937.88
2022-07-29T11:16:00.876Z,937.84
2022-07-29T11:17:01.523Z,937.84
2022-07-29T11:18:02.299Z,937.87
2022-07-29T11:19:02.423Z,937.84
2022-07-29T11:20:03.300Z,937.87
2022-07-29T11:21:04.114Z,937.77
2022-07-29T11:22:05.542Z,937.82
2022-07-29T11:23:05.280Z,937.85
2022-07-29T11:24:05.563Z,937.82
2022-07-29T11:27:09.592Z,937.83
2022-07-29T11:28:09.734Z,937.86
2022-07-29T11:29:10.461Z,937.8
2022-07-29T11:30:11.072Z,937.84
2022-07-29T11:31:11.431Z,937.85
2022-07-29T11:32:15.906Z,937.85
2022-07-29T11:33:12.388Z,937.87
2022-07-29T11:34:11.731Z,937.87
2022-07-29T11:35:16.924Z,937.89
2022-07-29T11:36:16.704Z,937.89
2022-07-29T11:37:13.200Z,937.87
2022-07-29T11:38:24.169Z,937.88
2022-07-29T11:39:24.670Z,937.95
2022-07-29T11:42:32.894Z,937.98
2022-07-29T11:43:33.514Z,937.92
2022-07-29T11:44:33.733Z,937.91
2022-07-29T11:45:44.491Z,937.93
2022-07-29T11:48:38.411Z,937.88
2022-07-29T11:49:38.594Z,937.89
2022-07-29T11:50:44.453Z,937.83
2022-07-29T11:51:48.385Z,937.85
2022-07-29T11:52:49.734Z,937.85
2022-07-29T11:53:40.597Z,937.81
2022-07-29T11:57:45.969Z,937.7
2022-07-29T11:58:59.091Z,937.69
2022-07-29T12:00:04.552Z,937.71
2022-07-29T12:01:04.037Z,937.69
2022-07-29T12:02:33.522Z,937.74
2022-07-29T12:03:01.277Z,937.67
2022-07-29T12:04:01.573Z,937.68
2022-07-29T12:05:02.270Z,937.69
2022-07-29T12:06:02.437Z,937.71
2022-07-29T12:07:03.092Z,937.79
2022-07-29T12:07:04.710Z,937.72
2022-07-29T12:08:03.539Z,937.74
2022-07-29T12:09:04.628Z,937.73
2022-07-29T12:10:06.271Z,937.73
2022-07-29T12:11:06.134Z,937.73
2022-07-29T12:12:06.768Z,937.75
2022-07-29T12:13:06.888Z,937.71
2022-07-29T12:14:07.575Z,937.72
2022-07-29T12:15:08.372Z,937.67
2022-07-29T12:16:09.460Z,937.65
2022-07-29T12:17:09.847Z,937.68
2022-07-29T12:18:10.891Z,937.67
2022-07-29T12:19:11.620Z,937.67
2022-07-29T12:20:12.724Z,937.66
2022-07-29T12:21:13.505Z,937.68
2022-07-29T12:22:14.009Z,937.7
2022-07-29T12:23:14.875Z,937.67
2022-07-29T12:24:15.363Z,937.69
2022-07-29T12:25:32.160Z,937.69
2022-07-29T12:26:21.744Z,937.67
2022-07-29T12:27:17.472Z,937.72
2022-07-29T12:28:26.464Z,937.65
2022-07-29T12:29:36.008Z,937.68
2022-07-29T12:30:36.548Z,937.65
2022-07-29T12:31:42.577Z,937.67
2022-07-29T12:32:37.760Z,937.68
2022-07-29T12:33:37.987Z,937.68
2022-07-29T12:34:38.921Z,937.72
2022-07-29T12:35:39.135Z,937.7
2022-07-29T12:36:39.471Z,937.72
2022-07-29T12:37:41.449Z,937.69
2022-07-29T12:38:40.939Z,937.65
2022-07-29T12:39:41.751Z,937.7
2022-07-29T12:40:41.985Z,937.66
2022-07-29T12:41:42.924Z,937.67
2022-07-29T12:42:43.676Z,937.65
2022-07-29T12:43:43.904Z,937.63
2022-07-29T12:44:44.114Z,937.61
2022-07-29T12:45:44.342Z,937.57
2022-07-29T12:46:44.731Z,937.6
2022-07-29T12:47:45.613Z,937.61
2022-07-29T12:48:46.640Z,937.62
2022-07-29T12:49:46.701Z,937.64
2022-07-29T12:50:47.048Z,937.61
2022-07-29T12:51:47.986Z,937.6
2022-07-29T12:52:48.496Z,937.61
2022-07-29T12:53:49.401Z,937.64
2022-07-29T12:54:50.328Z,937.61
2022-07-29T12:55:50.787Z,937.6
2022-07-29T12:56:51.153Z,937.61
2022-07-29T12:57:51.354Z,937.59
2022-07-29T12:58:51.990Z,937.6
2022-07-29T12:59:52.663Z,937.57
2022-07-29T13:00:53.200Z,937.57
2022-07-29T13:01:54.033Z,937.58
2022-07-29T13:02:54.371Z,937.54
2022-07-29T13:03:55.810Z,937.52
2022-07-29T13:04:55.479Z,937.6